createdAt,value
2022-10-19T00:00:48.479Z,63.43
2022-10-19T00:03:19.405Z,63.69
2022-10-19T00:05:49.218Z,63.00
2022-10-19T00:08:16.074Z,63.20
2022-10-19T00:10:42.882Z,63.07
2022-10-19T00:13:09.766Z,63.19
2022-10-19T00:15:40.978Z,63.96
2022-10-19T00:18:08.684Z,63.88
2022-10-19T00:20:36.241Z,63.10
2022-10-19T00:23:03.193Z,63.66
2022-10-19T00:25:30.010Z,62.92
2022-10-19T00:27:56.880Z,63.15
2022-10-19T00:30:23.743Z,63.75
2022-10-19T00:32:50.705Z,63.62
2022-10-19T00:35:17.608Z,63.63
2022-10-19T00:37:44.415Z,63.17
2022-10-19T00:40:11.521Z,63.65
2022-10-19T00:42:38.417Z,62.82
2022-10-19T00:45:13.978Z,63.33
2022-10-19T00:47:41.639Z,63.90
2022-10-19T00:50:10.079Z,64.12
2022-10-19T00:52:37.365Z,64.32
2022-10-19T00:55:04.720Z,64.28
2022-10-19T00:57:32.698Z,64.37
2022-10-19T01:00:02.401Z,64.44
2022-10-19T01:02:29.280Z,64.49
2022-10-19T01:04:56.338Z,64.05
2022-10-19T01:07:24.135Z,64.53
2022-10-19T01:09:51.219Z,64.20
2022-10-19T01:12:17.939Z,64.03
2022-10-19T01:15:13.969Z,64.28
2022-10-19T01:17:59.468Z,64.13
2022-10-19T01:20:47.387Z,64.16
2022-10-19T01:23:51.074Z,64.74
2022-10-19T01:26:32.202Z,65.27
2022-10-19T01:29:08.430Z,65.47
2022-10-19T01:31:54.268Z,65.05
2022-10-19T01:34:34.031Z,64.80
2022-10-19T01:37:30.011Z,64.00
2022-10-19T01:40:24.265Z,64.24
2022-10-19T01:43:04.776Z,64.65
2022-10-19T01:45:36.891Z,65.30
2022-10-19T01:48:27.066Z,64.96
2022-10-19T01:51:00.066Z,65.37
2022-10-19T01:53:30.465Z,65.07
2022-10-19T01:55:59.013Z,64.19
2022-10-19T01:58:31.619Z,64.72
2022-10-19T02:01:02.768Z,64.27
2022-10-19T02:03:29.807Z,64.41
2022-10-19T02:05:57.043Z,64.78
2022-10-19T02:08:31.225Z,65.77
2022-10-19T02:11:00.227Z,64.80
2022-10-19T02:13:28.557Z,64.39
2022-10-19T02:15:59.517Z,64.21
2022-10-19T02:18:35.557Z,64.52
2022-10-19T02:21:04.295Z,64.23
2022-10-19T02:23:31.320Z,63.57
2022-10-19T02:25:59.310Z,65.03
2022-10-19T02:28:28.199Z,65.15
2022-10-19T02:30:55.117Z,64.99
2022-10-19T02:33:22.150Z,65.07
2022-10-19T02:35:49.270Z,65.94
2022-10-19T02:38:20.485Z,66.20
2022-10-19T02:41:16.302Z,65.67
2022-10-19T02:43:48.179Z,65.40
2022-10-19T02:46:23.280Z,65.38
2022-10-19T02:48:51.938Z,65.91
2022-10-19T02:51:59.273Z,65.67
2022-10-19T02:54:26.565Z,65.19
2022-10-19T02:56:53.523Z,64.72
2022-10-19T02:59:20.325Z,65.36
2022-10-19T03:01:47.568Z,65.49
2022-10-19T03:04:14.659Z,66.12
2022-10-19T03:06:41.449Z,65.88
2022-10-19T03:09:08.752Z,65.94
2022-10-19T03:11:35.739Z,65.83
2022-10-19T03:14:02.593Z,65.66
2022-10-19T03:16:29.418Z,66.60
2022-10-19T03:18:56.257Z,66.68
2022-10-19T03:21:23.266Z,65.97
2022-10-19T03:23:50.081Z,66.29
2022-10-19T03:26:17.715Z,66.92
2022-10-19T03:28:44.683Z,66.40
2022-10-19T03:31:12.106Z,67.17
2022-10-19T03:33:39.050Z,66.21
2022-10-19T03:36:25.073Z,66.18
2022-10-19T03:38:59.613Z,66.40
2022-10-19T03:41:29.102Z,66.25
2022-10-19T03:43:56.955Z,65.73
2022-10-19T03:46:24.163Z,66.80
2022-10-19T03:48:51.002Z,67.14
2022-10-19T03:51:21.387Z,66.80
2022-10-19T03:53:52.026Z,67.31
2022-10-19T03:56:22.231Z,67.88
2022-10-19T03:58:51.118Z,66.72
2022-10-19T04:01:22.854Z,67.04
2022-10-19T04:03:57.252Z,67.57
2022-10-19T04:06:35.659Z,67.09
2022-10-19T04:09:03.747Z,67.54
2022-10-19T04:11:31.364Z,67.20
2022-10-19T04:13:59.502Z,68.07
2022-10-19T04:16:28.500Z,66.89
2022-10-19T04:18:55.865Z,67.93
2022-10-19T04:21:30.500Z,66.58
2022-10-19T04:24:00.221Z,67.28
2022-10-19T04:26:27.480Z,67.72
2022-10-19T04:28:54.566Z,67.56
2022-10-19T04:31:21.461Z,68.08
2022-10-19T04:33:48.283Z,67.46
2022-10-19T04:36:15.204Z,68.88
2022-10-19T04:38:42.214Z,68.36
2022-10-19T04:41:12.826Z,66.92
2022-10-19T04:43:39.986Z,66.59
2022-10-19T04:46:10.358Z,65.59
2022-10-19T04:48:38.819Z,65.75
2022-10-19T04:51:06.403Z,64.83
2022-10-19T04:53:34.177Z,62.63
2022-10-19T04:56:05.602Z,63.51
2022-10-19T04:58:32.706Z,61.92
2022-10-19T05:00:59.623Z,60.85
2022-10-19T05:03:26.479Z,59.49
2022-10-19T05:05:53.292Z,59.45
2022-10-19T05:08:20.066Z,58.41
2022-10-19T05:10:47.792Z,57.99
2022-10-19T05:13:14.847Z,59.35
2022-10-19T05:15:41.769Z,59.36
2022-10-19T05:18:08.582Z,60.33
2022-10-19T05:20:35.490Z,60.15
2022-10-19T05:23:06.242Z,59.70
2022-10-19T05:25:34.283Z,60.24
2022-10-19T05:28:01.099Z,59.74
2022-10-19T05:30:27.913Z,59.43
2022-10-19T05:32:54.709Z,59.67
2022-10-19T05:35:22.668Z,59.33
2022-10-19T05:37:54.517Z,58.72
2022-10-19T05:40:21.569Z,58.66
2022-10-19T05:42:48.371Z,58.68
2022-10-19T05:45:15.329Z,57.25
2022-10-19T05:47:42.192Z,56.60
2022-10-19T05:50:09.586Z,56.68
2022-10-19T05:52:36.465Z,57.80
2022-10-19T05:55:03.855Z,56.64
2022-10-19T05:57:33.194Z,56.17
2022-10-19T06:00:00.368Z,54.39
2022-10-19T06:02:27.157Z,54.37
2022-10-19T06:04:53.998Z,54.65
2022-10-19T06:07:20.804Z,54.07
2022-10-19T06:09:48.070Z,53.80
2022-10-19T06:12:16.313Z,53.84
2022-10-19T06:14:43.436Z,53.38
2022-10-19T06:17:10.841Z,53.18
2022-10-19T06:19:37.825Z,53.99
2022-10-19T06:22:04.665Z,53.46
2022-10-19T06:24:31.630Z,51.91
2022-10-19T06:26:58.423Z,53.04
2022-10-19T06:29:25.218Z,52.91
2022-10-19T06:31:54.255Z,53.03
2022-10-19T06:34:21.088Z,51.55
2022-10-19T06:36:48.020Z,51.62
2022-10-19T06:39:14.868Z,50.71
2022-10-19T06:41:41.698Z,50.52
2022-10-19T06:44:18.329Z,49.43
2022-10-19T06:46:45.137Z,50.35
2022-10-19T06:49:13.905Z,50.20
2022-10-19T06:51:41.209Z,49.38
2022-10-19T06:54:08.350Z,49.58
2022-10-19T06:56:35.330Z,47.42
2022-10-19T06:59:02.261Z,47.69
2022-10-19T07:01:29.200Z,47.23
2022-10-19T07:03:56.156Z,46.55
2022-10-19T07:06:23.202Z,46.82
2022-10-19T07:08:50.080Z,46.79
2022-10-19T07:11:19.553Z,47.50
2022-10-19T07:13:46.476Z,47.58
2022-10-19T07:16:19.529Z,48.11
2022-10-19T07:18:49.460Z,46.89
2022-10-19T07:21:17.427Z,46.24
2022-10-19T07:23:45.580Z,44.71
2022-10-19T07:26:23.385Z,44.08
2022-10-19T07:28:50.778Z,44.22
2022-10-19T07:31:20.732Z,43.21
2022-10-19T07:33:52.839Z,42.73
2022-10-19T07:36:20.083Z,43.54
2022-10-19T07:38:46.925Z,44.95
2022-10-19T07:41:18.687Z,43.36
2022-10-19T07:43:47.103Z,43.49
2022-10-19T07:46:19.315Z,44.22
2022-10-19T07:48:46.989Z,43.40
2022-10-19T07:51:16.085Z,42.63
2022-10-19T07:53:43.957Z,42.34
2022-10-19T07:56:16.079Z,42.55
2022-10-19T07:58:43.468Z,42.31
2022-10-19T08:01:13.722Z,41.65
2022-10-19T08:04:31.738Z,43.85
2022-10-19T08:06:27.936Z,42.86
2022-10-19T08:08:55.746Z,42.83
2022-10-19T08:11:25.897Z,42.87
2022-10-19T08:13:53.751Z,43.66
2022-10-19T08:16:29.761Z,42.96
2022-10-19T08:19:00.908Z,42.51
2022-10-19T08:21:29.464Z,42.77
2022-10-19T08:23:56.761Z,42.48
2022-10-19T08:26:24.146Z,41.63
2022-10-19T08:28:51.097Z,41.82
2022-10-19T08:31:21.065Z,43.65
2022-10-19T08:33:50.676Z,42.73
2022-10-19T08:36:21.685Z,43.71
2022-10-19T08:38:49.896Z,42.76
2022-10-19T08:41:16.809Z,41.95
2022-10-19T08:43:59.942Z,41.89
2022-10-19T08:46:45.351Z,42.64
2022-10-19T08:49:19.027Z,40.69
2022-10-19T08:51:53.774Z,41.66
2022-10-19T08:54:20.892Z,42.05
2022-10-19T08:56:57.912Z,41.71
2022-10-19T08:59:39.945Z,42.15
2022-10-19T09:02:12.565Z,40.83
2022-10-19T09:04:49.206Z,40.51
2022-10-19T09:07:34.492Z,40.46
2022-10-19T09:10:19.163Z,40.05
2022-10-19T09:13:09.341Z,40.56
2022-10-19T09:15:42.041Z,38.08
2022-10-19T09:18:18.951Z,38.35
2022-10-19T09:20:49.552Z,37.96
2022-10-19T09:23:26.949Z,37.15
2022-10-19T09:25:56.266Z,37.18
2022-10-19T09:28:40.176Z,36.61
2022-10-19T09:31:15.479Z,35.26
2022-10-19T09:33:45.443Z,35.42
2022-10-19T09:36:22.312Z,35.35
2022-10-19T09:38:54.631Z,36.06
2022-10-19T09:41:23.595Z,36.93
2022-10-19T09:43:54.651Z,35.67
2022-10-19T09:47:00.037Z,36.32
2022-10-19T09:49:47.402Z,35.84
2022-10-19T09:52:25.568Z,35.41
2022-10-19T09:55:01.889Z,34.26
2022-10-19T09:57:29.734Z,34.34
2022-10-19T09:59:56.827Z,32.90
2022-10-19T10:02:32.735Z,33.39
2022-10-19T10:05:05.100Z,32.36
2022-10-19T10:07:39.100Z,33.52
2022-10-19T10:10:10.794Z,31.89
2022-10-19T10:12:40.337Z,34.05
2022-10-19T10:15:07.879Z,34.54
2022-10-19T10:17:36.934Z,32.35
2022-10-19T10:20:18.042Z,31.37
2022-10-19T10:22:53.270Z,31.61
2022-10-19T10:25:20.262Z,31.38
2022-10-19T10:28:02.193Z,31.51
2022-10-19T10:30:37.372Z,30.66
2022-10-19T10:33:13.376Z,31.22
2022-10-19T10:35:53.532Z,31.88
2022-10-19T10:38:23.418Z,31.73
2022-10-19T10:40:57.864Z,31.44
2022-10-19T10:43:32.277Z,31.76
2022-10-19T10:46:27.177Z,31.30
2022-10-19T10:48:58.611Z,29.78
2022-10-19T10:51:35.065Z,30.82
2022-10-19T10:54:19.879Z,30.88
2022-10-19T10:57:15.915Z,29.70
2022-10-19T11:00:01.335Z,29.98
2022-10-19T11:02:34.140Z,31.32
2022-10-19T11:05:07.922Z,30.02
2022-10-19T11:07:36.856Z,30.32
2022-10-19T11:10:14.490Z,30.45
2022-10-19T11:12:49.709Z,29.30
2022-10-19T11:15:36.682Z,28.79
2022-10-19T11:18:31.393Z,29.54
2022-10-19T11:21:12.463Z,29.54
2022-10-19T11:23:42.035Z,29.46
2022-10-19T11:26:23.859Z,29.49
2022-10-19T11:29:26.333Z,28.05
2022-10-19T11:31:57.251Z,28.08
2022-10-19T11:34:37.129Z,28.54
2022-10-19T11:37:49.805Z,28.88
2022-10-19T11:40:40.231Z,28.91
2022-10-19T11:43:48.474Z,27.76
2022-10-19T11:46:39.237Z,29.49
2022-10-19T11:49:41.285Z,28.50
2022-10-19T11:52:38.036Z,28.31
2022-10-19T11:55:32.500Z,28.10
2022-10-19T11:58:21.881Z,27.80
2022-10-19T12:01:04.522Z,27.81
2022-10-19T12:03:31.329Z,27.51
2022-10-19T12:06:08.228Z,27.50
2022-10-19T12:08:56.181Z,28.38
2022-10-19T12:11:35.536Z,27.82
2022-10-19T12:14:12.806Z,27.40
2022-10-19T12:16:53.143Z,27.61
2022-10-19T12:19:25.103Z,26.92
2022-10-19T12:21:58.628Z,27.65
2022-10-19T12:24:28.721Z,27.31
2022-10-19T12:26:56.147Z,27.35
2022-10-19T12:29:30.786Z,27.70
2022-10-19T12:32:01.170Z,26.17
2022-10-19T12:35:03.411Z,27.09
2022-10-19T12:37:47.897Z,26.73
2022-10-19T12:40:28.151Z,26.62
2022-10-19T12:43:11.255Z,26.31
2022-10-19T12:46:06.324Z,26.55
2022-10-19T12:48:36.404Z,26.42
2022-10-19T12:51:07.004Z,26.57
2022-10-19T12:53:38.489Z,26.71
2022-10-19T12:56:11.799Z,26.19
2022-10-19T12:58:47.704Z,26.57
2022-10-19T13:01:23.359Z,26.36
2022-10-19T13:04:07.795Z,26.10
2022-10-19T13:06:38.494Z,26.45
2022-10-19T13:09:08.130Z,26.96
2022-10-19T13:11:36.429Z,26.03
2022-10-19T13:14:15.152Z,25.81
2022-10-19T13:16:57.741Z,26.51
2022-10-19T13:19:25.543Z,25.46
2022-10-19T13:22:01.723Z,25.16
2022-10-19T13:24:37.079Z,25.38
2022-10-19T13:27:04.002Z,24.90
2022-10-19T13:29:41.507Z,24.95
2022-10-19T13:32:27.183Z,24.84
2022-10-19T13:34:54.189Z,24.35
2022-10-19T13:37:21.915Z,24.72
2022-10-19T13:39:49.683Z,24.83
2022-10-19T13:42:27.975Z,24.56
2022-10-19T13:44:54.983Z,25.07
2022-10-19T13:47:43.377Z,26.24
2022-10-19T13:50:22.520Z,26.09
2022-10-19T13:53:15.753Z,25.81
2022-10-19T13:56:09.754Z,24.48
2022-10-19T13:58:48.827Z,26.68
2022-10-19T14:01:41.804Z,18.23
2022-10-19T14:04:47.098Z,20.11
2022-10-19T14:07:26.613Z,18.37
2022-10-19T14:10:33.044Z,19.10
2022-10-19T14:13:15.831Z,20.50
2022-10-19T14:15:52.715Z,19.21
2022-10-19T14:18:31.449Z,20.33
2022-10-19T14:21:05.522Z,19.09
2022-10-19T14:23:39.846Z,20.28
2022-10-19T14:26:11.372Z,21.30
2022-10-19T14:28:39.956Z,21.53
2022-10-19T14:31:17.741Z,20.05
2022-10-19T14:33:47.833Z,19.77
2022-10-19T14:36:18.791Z,21.14
2022-10-19T14:38:48.319Z,21.64
2022-10-19T14:44:44.124Z,22.35
2022-10-19T14:47:23.119Z,21.86
2022-10-19T14:49:50.929Z,24.11
2022-10-19T14:55:05.492Z,22.91
2022-10-19T14:57:36.769Z,24.07
2022-10-19T15:00:10.177Z,24.08
2022-10-19T15:02:41.371Z,24.05
2022-10-19T15:05:20.391Z,23.59
2022-10-19T15:07:48.414Z,24.42
2022-10-19T15:10:31.202Z,25.47
2022-10-19T15:13:04.909Z,24.80
2022-10-19T15:15:34.611Z,25.38
2022-10-19T15:18:01.555Z,25.39
2022-10-19T15:20:49.188Z,27.37
2022-10-19T15:23:39.601Z,25.06
2022-10-19T15:26:28.721Z,26.19
2022-10-19T15:29:07.571Z,26.42
2022-10-19T15:31:34.755Z,26.74
2022-10-19T15:34:02.878Z,27.73
2022-10-19T15:36:31.939Z,30.07
2022-10-19T15:39:11.173Z,31.23
2022-10-19T15:41:45.660Z,30.67
2022-10-19T15:44:40.837Z,31.40
2022-10-19T15:47:16.718Z,28.08
2022-10-19T15:49:44.365Z,29.13
2022-10-19T15:52:19.668Z,30.30
2022-10-19T15:54:51.382Z,31.57
2022-10-19T15:57:37.882Z,31.73
2022-10-19T16:00:15.615Z,32.95
2022-10-19T16:02:42.478Z,32.52
2022-10-19T16:05:09.644Z,32.51
2022-10-19T16:07:38.446Z,32.69
2022-10-19T16:10:06.186Z,30.69
2022-10-19T16:12:33.201Z,31.09
2022-10-19T16:15:00.142Z,29.52
2022-10-19T16:17:27.365Z,30.27
2022-10-19T16:19:54.228Z,31.67
2022-10-19T16:22:21.226Z,33.53
2022-10-19T16:24:48.090Z,30.46
2022-10-19T16:27:16.422Z,33.17
2022-10-19T16:29:44.644Z,32.40
2022-10-19T16:32:11.733Z,30.53
2022-10-19T16:34:38.823Z,33.26
2022-10-19T16:37:07.208Z,32.56
2022-10-19T16:39:34.965Z,33.81
2022-10-19T16:42:01.765Z,31.63
2022-10-19T16:44:28.609Z,33.53
2022-10-19T16:46:58.965Z,32.68
2022-10-19T16:49:26.475Z,32.43
2022-10-19T16:51:56.454Z,33.07
2022-10-19T16:54:26.721Z,34.65
2022-10-19T16:56:55.629Z,29.76
2022-10-19T16:59:22.615Z,32.14
2022-10-19T17:01:49.666Z,31.16
2022-10-19T17:04:18.088Z,33.23
2022-10-19T17:06:44.938Z,30.90
2022-10-19T17:11:58.864Z,30.17
2022-10-19T17:14:25.840Z,30.29
2022-10-19T17:16:52.730Z,30.35
2022-10-19T17:19:19.549Z,30.73
2022-10-19T17:21:47.565Z,31.90
2022-10-19T17:24:21.678Z,31.82
2022-10-19T17:26:51.154Z,32.16
2022-10-19T17:29:18.824Z,32.58
2022-10-19T17:31:46.416Z,33.16
2022-10-19T17:34:13.864Z,33.60
2022-10-19T17:36:44.726Z,34.70
2022-10-19T17:39:15.478Z,35.05
2022-10-19T17:41:42.353Z,34.61
2022-10-19T17:44:09.328Z,35.36
2022-10-19T17:46:36.465Z,35.57
2022-10-19T17:49:04.306Z,34.50
2022-10-19T17:51:33.707Z,35.07
2022-10-19T17:54:02.999Z,35.04
2022-10-19T17:56:30.258Z,36.34
2022-10-19T17:58:58.596Z,35.99
2022-10-19T18:01:26.555Z,36.82
2022-10-19T18:03:53.514Z,37.43
2022-10-19T18:06:26.859Z,37.17
2022-10-19T18:08:55.939Z,37.19
2022-10-19T18:11:26.175Z,37.00
2022-10-19T18:13:56.242Z,36.70
2022-10-19T18:16:25.847Z,37.21
2022-10-19T18:18:55.487Z,37.96
2022-10-19T18:21:25.454Z,38.93
2022-10-19T18:23:53.802Z,37.97
2022-10-19T18:26:23.081Z,38.46
2022-10-19T18:28:51.199Z,38.46
2022-10-19T18:31:21.265Z,39.39
2022-10-19T18:33:54.634Z,38.93
2022-10-19T18:36:21.437Z,38.82
2022-10-19T18:38:56.231Z,38.96
2022-10-19T18:41:23.800Z,38.83
2022-10-19T18:43:52.670Z,39.13
2022-10-19T18:46:21.397Z,37.53
2022-10-19T18:48:48.266Z,38.16
2022-10-19T18:51:15.706Z,39.17
2022-10-19T18:53:43.806Z,39.42
2022-10-19T18:56:12.730Z,39.56
2022-10-19T18:58:39.848Z,40.02
2022-10-19T19:01:13.883Z,39.74
2022-10-19T19:03:43.790Z,39.95
2022-10-19T19:06:17.266Z,41.67
2022-10-19T19:11:25.298Z,41.59
2022-10-19T19:13:57.692Z,41.68
2022-10-19T19:16:25.223Z,41.21
2022-10-19T19:18:52.299Z,41.72
2022-10-19T19:21:24.864Z,41.89
2022-10-19T19:23:53.605Z,42.06
2022-10-19T19:26:22.629Z,42.00
2022-10-19T19:28:51.668Z,42.65
2022-10-19T19:31:19.646Z,43.27
2022-10-19T19:33:47.491Z,43.45
2022-10-19T19:36:16.274Z,43.46
2022-10-19T19:38:44.219Z,43.57
2022-10-19T19:41:13.465Z,41.66
2022-10-19T19:43:41.311Z,42.58
2022-10-19T19:46:12.721Z,41.96
2022-10-19T19:48:41.017Z,42.16
2022-10-19T19:51:12.897Z,42.40
2022-10-19T19:53:40.154Z,42.50
2022-10-19T19:56:09.258Z,42.27
2022-10-19T19:58:36.604Z,41.76
2022-10-19T20:01:14.327Z,41.63
2022-10-19T20:03:42.479Z,39.98
2022-10-19T20:06:10.262Z,40.31
2022-10-19T20:08:38.539Z,41.14
2022-10-19T20:11:11.830Z,42.00
2022-10-19T20:13:39.401Z,42.50
2022-10-19T20:16:10.328Z,44.21
2022-10-19T20:18:37.163Z,43.41
2022-10-19T20:21:05.197Z,42.69
2022-10-19T20:23:32.415Z,42.95
2022-10-19T20:25:59.178Z,43.38
2022-10-19T20:28:27.059Z,42.79
2022-10-19T20:31:05.470Z,42.67
2022-10-19T20:33:34.497Z,42.13
2022-10-19T20:36:06.496Z,43.22
2022-10-19T20:38:33.812Z,42.51
2022-10-19T20:41:06.932Z,43.17
2022-10-19T20:43:36.596Z,43.53
2022-10-19T20:46:08.818Z,44.23
2022-10-19T20:48:35.754Z,44.17
2022-10-19T20:51:12.852Z,44.31
2022-10-19T20:53:40.480Z,43.76
2022-10-19T20:56:09.507Z,45.04
2022-10-19T20:58:40.368Z,44.39
2022-10-19T21:01:15.666Z,44.31
2022-10-19T21:03:48.212Z,44.80
2022-10-19T21:06:15.217Z,44.61
2022-10-19T21:08:42.564Z,44.77
2022-10-19T21:11:20.928Z,44.70
2022-10-19T21:13:48.677Z,45.60
2022-10-19T21:16:17.901Z,44.45
2022-10-19T21:18:46.620Z,44.23
2022-10-19T21:21:18.482Z,44.98
2022-10-19T21:23:47.381Z,45.17
2022-10-19T21:26:14.651Z,44.37
2022-10-19T21:28:46.908Z,43.03
2022-10-19T21:31:14.510Z,43.85
2022-10-19T21:33:41.285Z,44.74
2022-10-19T21:36:09.332Z,44.58
2022-10-19T21:38:36.429Z,44.50
2022-10-19T21:41:05.894Z,44.98
2022-10-19T21:43:33.423Z,45.56
2022-10-19T21:46:08.252Z,45.83
2022-10-19T21:48:35.267Z,46.03
2022-10-19T21:51:20.745Z,46.55
2022-10-19T21:53:47.622Z,46.70
2022-10-19T21:56:15.996Z,47.86
2022-10-19T21:58:50.844Z,48.74
2022-10-19T22:01:19.325Z,47.99
2022-10-19T22:03:46.592Z,49.38
2022-10-19T22:06:14.173Z,48.38
2022-10-19T22:08:45.447Z,48.95
2022-10-19T22:11:13.903Z,50.67
2022-10-19T22:13:41.164Z,48.97
2022-10-19T22:16:21.028Z,49.35
2022-10-19T22:18:48.655Z,48.92
2022-10-19T22:21:21.908Z,48.76
2022-10-19T22:23:53.838Z,48.66
2022-10-19T22:26:29.504Z,48.78
2022-10-19T22:28:57.355Z,48.67
2022-10-19T22:31:25.087Z,48.90
2022-10-19T22:33:51.909Z,48.06
2022-10-19T22:36:18.980Z,47.31
2022-10-19T22:38:45.973Z,46.83
2022-10-19T22:41:12.713Z,45.34
2022-10-19T22:43:39.477Z,44.22
2022-10-19T22:46:06.275Z,45.23
2022-10-19T22:48:33.022Z,43.67
2022-10-19T22:50:59.868Z,44.24
2022-10-19T22:53:27.399Z,43.26
2022-10-19T22:55:54.147Z,42.71
2022-10-19T22:58:20.951Z,43.36
2022-10-19T23:01:08.572Z,43.54
2022-10-19T23:03:35.775Z,43.35
2022-10-19T23:06:02.560Z,43.37
2022-10-19T23:08:29.379Z,42.72
2022-10-19T23:10:56.291Z,42.53
2022-10-19T23:13:23.280Z,42.68
2022-10-19T23:15:50.904Z,42.36
2022-10-19T23:18:18.180Z,43.27
2022-10-19T23:20:59.406Z,42.42
2022-10-19T23:23:27.809Z,43.33
2022-10-19T23:26:03.310Z,43.10
2022-10-19T23:28:31.734Z,42.50
2022-10-19T23:31:04.452Z,43.62
2022-10-19T23:33:31.987Z,43.36
2022-10-19T23:36:11.563Z,43.54
2022-10-19T23:38:38.816Z,43.40
2022-10-19T23:41:05.686Z,43.43
2022-10-19T23:43:32.608Z,43.47
2022-10-19T23:45:59.438Z,44.25
2022-10-19T23:48:26.272Z,44.39
2022-10-19T23:51:00.638Z,44.83
2022-10-19T23:53:29.244Z,44.11
2022-10-19T23:56:03.903Z,44.64
2022-10-19T23:58:31.312Z,44.93
